Current Conditions
Mostly Scattered
Clouds




Pressure
1017.92 (hPa) - 30.06 (inHG)
Visibility

10.0 (km) - 6.2 (miles)
   Temperature
13  °C
55°F
5  °C
Dewpoint
59  %
 Humidity
   Wind Speed
11  km/h
6  kts
7  mph
3.1  m/s
   Wind Direction
 110°
East South
East
   Airport Data
LTBA
Location Atatürk International 10 km (6.22 mi)
Metar :LTBA 271220Z 11006KT 9999 SCT040 BKN090 13/05 Q1018 NOSIG RMK RWY17L 14006KT 090V150 RWY05 13005KT 100V160 RWY23 13005KT
Mon 27th January 15:20 pm
   Raw Metar Info
Raw METAR is the most common format in the world for the transmission of observational weather data. It is highly standardized through the International Civil Aviation Organization (ICAO), which allows it to be understood throughout most of the world.
   API Info
Data Provided by
https://www.checkwx.com/weather/
   © Info
CSS/SVG/PHP scripts were developed by weather34.com for use in the weather34 template © 2015-2020

Guide Info provided by Metar-Wikipedia